Time;durP1;ratioP1;P1;durP2;ratioP2;P2;SDS_P1;SDS_P2;PMS_P1;PMS_P2;Temp;Humidity;BMP_temperature;BMP_pressure;BME280_temperature;BME280_humidity;BME280_pressure;Samples;Min_cycle;Max_cycle;Signal;HPM_P1;HPM_P2
2021/07/17 00:00:29;;;;;;;41.90;23.87;;;16.70;99.90;;;;;;5079370;28;20435;-81
2021/07/17 00:02:54;;;;;;;31.70;21.47;;;16.70;99.90;;;;;;5083047;28;20835;-80
2021/07/17 00:05:20;;;;;;;40.83;25.30;;;16.70;99.90;;;;;;5080930;28;20268;-80
2021/07/17 00:07:47;;;;;;;44.63;24.37;;;16.90;99.90;;;;;;5084681;28;20181;-82
2021/07/17 00:10:20;;;;;;;34.33;20.87;;;16.90;99.90;;;;;;5082212;28;20514;-81
2021/07/17 00:12:46;;;;;;;36.70;23.10;;;16.90;99.90;;;;;;5079431;28;21018;-80
2021/07/17 00:15:14;;;;;;;37.70;22.47;;;16.70;99.90;;;;;;5089047;28;20483;-81
2021/07/17 00:17:41;;;;;;;29.90;21.90;;;17.00;99.90;;;;;;5086994;28;20492;-80
2021/07/17 00:20:09;;;;;;;40.53;22.00;;;16.80;99.90;;;;;;5083938;28;20434;-83
2021/07/17 00:22:35;;;;;;;29.83;21.20;;;16.90;99.90;;;;;;5079024;28;20435;-81
2021/07/17 00:25:02;;;;;;;40.07;24.07;;;16.70;99.90;;;;;;5088594;28;20424;-80
2021/07/17 00:27:28;;;;;;;29.50;20.47;;;16.80;99.90;;;;;;5088323;28;20794;-80
2021/07/17 00:29:53;;;;;;;31.13;20.30;;;16.70;99.90;;;;;;5089339;28;20423;-81
2021/07/17 00:32:19;;;;;;;28.60;19.13;;;17.10;99.90;;;;;;5081988;28;20185;-80
2021/07/17 00:34:44;;;;;;;32.40;21.30;;;16.70;99.90;;;;;;5086984;28;20182;-83
2021/07/17 00:37:10;;;;;;;34.17;20.60;;;16.90;99.90;;;;;;5081759;28;20221;-80
2021/07/17 00:39:35;;;;;;;33.10;20.40;;;16.90;99.90;;;;;;5081618;28;20181;-80
2021/07/17 00:42:01;;;;;;;29.43;18.73;;;16.90;99.90;;;;;;5088770;28;20197;-80
2021/07/17 00:44:27;;;;;;;34.10;18.27;;;16.80;99.90;;;;;;5082970;28;20263;-80
2021/07/17 00:46:53;;;;;;;27.27;19.10;;;16.80;99.90;;;;;;5081009;28;20223;-80
2021/07/17 00:49:21;;;;;;;28.13;20.87;;;16.80;99.90;;;;;;5085388;28;20199;-80
2021/07/17 00:51:47;;;;;;;43.07;24.10;;;16.80;99.90;;;;;;5086002;28;20428;-81
2021/07/17 00:54:18;;;;;;;41.93;22.63;;;16.80;99.90;;;;;;5086628;28;20879;-79
2021/07/17 00:56:45;;;;;;;40.47;24.60;;;16.70;99.90;;;;;;5077785;28;20260;-79
2021/07/17 00:59:12;;;;;;;38.90;22.77;;;16.70;99.90;;;;;;5086571;28;20446;-80
2021/07/17 01:01:39;;;;;;;34.97;23.47;;;16.70;99.90;;;;;;5086629;28;20439;-82
2021/07/17 01:04:05;;;;;;;38.67;24.00;;;16.70;99.90;;;;;;5087993;28;20493;-80
2021/07/17 01:06:31;;;;;;;44.03;24.67;;;16.70;99.90;;;;;;5088593;28;20442;-80
2021/07/17 01:08:56;;;;;;;44.03;24.87;;;16.40;99.90;;;;;;5082812;28;20419;-82
2021/07/17 01:11:22;;;;;;;36.67;23.10;;;16.50;99.90;;;;;;5078678;28;20217;-80
2021/07/17 01:13:47;;;;;;;32.77;22.00;;;16.50;99.90;;;;;;5085489;28;20186;-81
2021/07/17 01:16:13;;;;;;;36.97;22.77;;;16.50;99.90;;;;;;5087485;28;20228;-81
2021/07/17 01:18:39;;;;;;;36.43;23.10;;;16.50;99.90;;;;;;5085668;28;20273;-80
2021/07/17 01:21:06;;;;;;;44.00;25.30;;;16.60;99.90;;;;;;5083307;28;20181;-80
2021/07/17 01:23:31;;;;;;;36.60;23.07;;;16.50;99.90;;;;;;5081917;28;20540;-81
2021/07/17 01:25:57;;;;;;;44.63;24.10;;;16.40;99.90;;;;;;5080783;28;20477;-81
2021/07/17 01:28:22;;;;;;;38.90;21.50;;;16.30;99.90;;;;;;5083106;28;20196;-80
2021/07/17 01:30:48;;;;;;;45.93;24.50;;;16.60;99.90;;;;;;5076605;28;20185;-83
2021/07/17 01:33:14;;;;;;;39.27;22.50;;;16.20;99.90;;;;;;5076266;28;20580;-80
2021/07/17 01:35:40;;;;;;;45.83;22.30;;;16.20;99.90;;;;;;5088393;28;20524;-81
2021/07/17 01:38:05;;;;;;;35.13;23.20;;;16.10;99.90;;;;;;5087138;28;20558;-81
2021/07/17 01:40:31;;;;;;;39.33;22.17;;;16.20;99.90;;;;;;5078324;28;20188;-81
2021/07/17 01:42:58;;;;;;;35.00;21.47;;;16.50;99.90;;;;;;5087786;28;20189;-80
2021/07/17 01:45:35;;;;;;;34.90;21.03;;;16.40;99.90;;;;;;5075664;28;20197;-80
2021/07/17 01:48:01;;;;;;;35.33;21.60;;;16.50;99.90;;;;;;5078749;28;20450;-82
2021/07/17 01:50:28;;;;;;;35.40;22.00;;;16.40;99.90;;;;;;5087681;28;20439;-80
2021/07/17 01:52:54;;;;;;;33.77;23.37;;;16.40;99.90;;;;;;5088311;28;20435;-82
2021/07/17 01:55:19;;;;;;;42.00;22.50;;;16.60;99.90;;;;;;5086447;28;20818;-84
2021/07/17 01:57:46;;;;;;;29.90;19.83;;;16.70;99.90;;;;;;5080295;28;20180;-81
2021/07/17 02:00:12;;;;;;;41.60;23.60;;;16.50;99.90;;;;;;5078425;28;20285;-81
2021/07/17 02:02:38;;;;;;;36.97;23.47;;;16.70;99.90;;;;;;5079147;28;20833;-80
2021/07/17 02:05:06;;;;;;;36.77;23.10;;;16.90;99.90;;;;;;5080525;28;20476;-80
2021/07/17 02:07:32;;;;;;;38.70;23.67;;;16.70;99.90;;;;;;5079313;28;20470;-80
2021/07/17 02:09:59;;;;;;;32.10;21.70;;;16.90;99.90;;;;;;5088531;28;20988;-80
2021/07/17 02:12:25;;;;;;;33.63;22.50;;;16.80;99.90;;;;;;5081083;28;20519;-80
2021/07/17 02:14:52;;;;;;;32.47;22.97;;;16.90;99.90;;;;;;5087917;28;20583;-80
2021/07/17 02:17:18;;;;;;;34.80;23.43;;;17.00;99.90;;;;;;5078944;28;20579;-81
2021/07/17 02:19:44;;;;;;;31.90;21.27;;;17.00;99.90;;;;;;5080603;28;20434;-81
2021/07/17 02:22:11;;;;;;;26.40;19.63;;;17.00;99.90;;;;;;5087602;28;20431;-80
2021/07/17 02:24:37;;;;;;;35.57;22.30;;;16.80;99.90;;;;;;5076561;28;20411;-80
2021/07/17 02:27:03;;;;;;;24.97;18.90;;;16.90;99.90;;;;;;5082316;28;20453;-81
2021/07/17 02:29:28;;;;;;;29.20;20.13;;;17.00;99.90;;;;;;5086108;28;20203;-80
2021/07/17 02:31:54;;;;;;;26.90;18.40;;;17.00;99.90;;;;;;5075700;28;20204;-80
2021/07/17 02:34:20;;;;;;;24.73;19.70;;;16.90;99.90;;;;;;5077186;28;20185;-80
2021/07/17 02:36:45;;;;;;;34.47;22.03;;;16.80;99.90;;;;;;5095359;28;20209;-80
2021/07/17 02:39:11;;;;;;;35.30;20.70;;;17.00;99.90;;;;;;5080396;28;20246;-80
2021/07/17 02:41:37;;;;;;;24.40;19.10;;;16.80;99.90;;;;;;5081878;28;20660;-81
2021/07/17 02:44:04;;;;;;;29.20;21.73;;;16.90;99.90;;;;;;5080811;28;20188;-80
2021/07/17 02:46:29;;;;;;;29.37;19.70;;;16.80;99.90;;;;;;5085442;28;20844;-80
2021/07/17 02:48:55;;;;;;;25.47;18.97;;;17.00;99.90;;;;;;5080146;28;20435;-83
2021/07/17 02:51:20;;;;;;;30.00;20.47;;;16.90;99.90;;;;;;5091065;28;20536;-80
2021/07/17 02:53:46;;;;;;;32.63;20.23;;;16.80;99.90;;;;;;5076221;28;20192;-81
2021/07/17 02:56:12;;;;;;;34.00;22.43;;;17.00;99.90;;;;;;5090620;28;20543;-81
2021/07/17 02:58:37;;;;;;;34.20;22.47;;;16.80;99.90;;;;;;5082927;28;20194;-80
2021/07/17 03:01:03;;;;;;;35.60;22.90;;;16.90;99.90;;;;;;5086337;28;20188;-81
2021/07/17 03:03:29;;;;;;;29.67;18.40;;;16.70;99.90;;;;;;5084065;28;20203;-80
2021/07/17 03:05:54;;;;;;;30.47;21.87;;;16.90;99.90;;;;;;5091441;28;20443;-80
2021/07/17 03:08:23;;;;;;;32.10;20.53;;;16.90;99.90;;;;;;5089971;28;20513;-80
2021/07/17 03:10:53;;;;;;;29.47;19.70;;;16.80;99.90;;;;;;5091045;28;20400;-82
2021/07/17 03:13:18;;;;;;;30.27;20.03;;;17.10;99.90;;;;;;5085572;28;20501;-81
2021/07/17 03:15:46;;;;;;;27.03;18.80;;;16.90;99.90;;;;;;5082467;28;20479;-81
2021/07/17 03:18:12;;;;;;;28.90;19.77;;;16.90;99.90;;;;;;5086610;28;20214;-80
2021/07/17 03:20:37;;;;;;;29.70;20.93;;;16.90;99.90;;;;;;5083496;28;20431;-81
2021/07/17 03:23:04;;;;;;;32.33;20.87;;;17.00;99.90;;;;;;5089979;28;20329;-79
2021/07/17 03:25:30;;;;;;;31.93;20.67;;;16.90;99.90;;;;;;5079318;28;20544;-80
2021/07/17 03:27:55;;;;;;;26.70;19.40;;;17.10;99.90;;;;;;5082843;28;20447;-82
2021/07/17 03:30:21;;;;;;;30.97;20.70;;;16.80;99.90;;;;;;5083267;28;20181;-80
2021/07/17 03:32:46;;;;;;;30.20;21.13;;;17.00;99.90;;;;;;5090774;28;20189;-80
2021/07/17 03:35:12;;;;;;;30.80;20.00;;;16.70;99.90;;;;;;5082371;28;20583;-80
2021/07/17 03:37:38;;;;;;;30.90;19.93;;;16.80;99.90;;;;;;5090640;28;20250;-81
2021/07/17 03:40:05;;;;;;;31.33;20.33;;;17.00;99.90;;;;;;5086873;28;20181;-80
2021/07/17 03:42:31;;;;;;;33.53;21.10;;;16.90;99.90;;;;;;5075697;28;20293;-82
2021/07/17 03:44:56;;;;;;;32.37;20.07;;;17.00;99.90;;;;;;5087868;28;20509;-81
2021/07/17 03:47:22;;;;;;;31.33;22.40;;;16.90;99.90;;;;;;5087361;28;20187;-80
2021/07/17 03:49:48;;;;;;;26.37;19.67;;;16.80;99.90;;;;;;5088866;28;20626;-82
2021/07/17 03:52:14;;;;;;;31.70;20.63;;;17.00;99.90;;;;;;5077423;28;20559;-81
2021/07/17 03:54:39;;;;;;;30.80;20.00;;;17.20;99.90;;;;;;5089540;28;20481;-80
2021/07/17 03:57:05;;;;;;;27.70;19.83;;;17.10;99.90;;;;;;5090115;28;20213;-80
2021/07/17 03:59:31;;;;;;;27.67;18.97;;;17.10;99.90;;;;;;5089119;28;20216;-81
2021/07/17 04:01:56;;;;;;;24.87;19.23;;;17.00;99.90;;;;;;5081224;28;20267;-80
2021/07/17 04:04:22;;;;;;;27.73;20.00;;;16.80;99.90;;;;;;5077984;28;20328;-80
2021/07/17 04:06:47;;;;;;;26.50;20.00;;;17.00;99.90;;;;;;5090089;28;20177;-80
2021/07/17 04:09:13;;;;;;;30.93;21.30;;;17.10;99.90;;;;;;5081043;28;20674;-80
2021/07/17 04:11:38;;;;;;;28.27;20.17;;;16.90;99.90;;;;;;5086414;28;20266;-81
2021/07/17 04:14:04;;;;;;;31.43;21.63;;;16.90;99.90;;;;;;5081807;28;20181;-80
2021/07/17 04:16:29;;;;;;;28.57;20.10;;;17.00;99.90;;;;;;5089260;28;20209;-80
2021/07/17 04:18:55;;;;;;;28.57;18.83;;;16.90;99.90;;;;;;5089846;28;20185;-82
2021/07/17 04:21:20;;;;;;;30.30;21.53;;;17.00;99.90;;;;;;5081986;28;20181;-80
2021/07/17 04:23:46;;;;;;;31.17;18.20;;;17.10;99.90;;;;;;5089640;28;20184;-80
2021/07/17 04:26:12;;;;;;;35.53;20.20;;;16.80;99.90;;;;;;5080840;28;20307;-81
2021/07/17 04:28:37;;;;;;;31.37;20.03;;;17.00;99.90;;;;;;5074366;28;20185;-80
2021/07/17 04:31:03;;;;;;;27.23;19.60;;;16.90;99.90;;;;;;5088742;28;20648;-80
2021/07/17 04:33:29;;;;;;;27.23;18.77;;;16.80;99.90;;;;;;5087880;28;20631;-81
2021/07/17 04:35:54;;;;;;;27.93;19.43;;;17.20;99.90;;;;;;5089741;28;20479;-80
2021/07/17 04:38:20;;;;;;;27.43;19.10;;;17.20;99.90;;;;;;5088891;28;20234;-80
2021/07/17 04:40:46;;;;;;;23.67;18.07;;;17.20;99.90;;;;;;5086102;28;20672;-81
2021/07/17 04:43:11;;;;;;;22.63;17.13;;;17.10;99.90;;;;;;5081619;28;20185;-80
2021/07/17 04:45:37;;;;;;;25.77;18.70;;;17.20;99.90;;;;;;5077851;28;20433;-80
2021/07/17 04:48:05;;;;;;;25.00;18.00;;;17.40;99.90;;;;;;5081401;28;20605;-82
2021/07/17 04:50:38;;;;;;;22.97;17.10;;;17.20;99.90;;;;;;5080643;28;20188;-82
2021/07/17 04:53:05;;;;;;;23.73;17.00;;;17.30;99.90;;;;;;5084754;28;20837;-82
2021/07/17 04:55:31;;;;;;;24.90;18.23;;;17.40;99.90;;;;;;5083147;28;20550;-80
2021/07/17 04:57:56;;;;;;;26.17;17.70;;;17.40;99.90;;;;;;5081895;28;20426;-81
2021/07/17 05:00:22;;;;;;;33.10;19.50;;;17.30;99.90;;;;;;5084335;28;20808;-81
2021/07/17 05:02:49;;;;;;;23.70;18.70;;;17.30;99.90;;;;;;5085317;28;20338;-81
2021/07/17 05:05:17;;;;;;;27.10;19.53;;;17.40;99.90;;;;;;5076111;28;20190;-83
2021/07/17 05:07:43;;;;;;;36.43;20.63;;;17.40;99.90;;;;;;5085264;28;20460;-81
2021/07/17 05:10:10;;;;;;;29.87;20.30;;;17.20;99.90;;;;;;5082502;28;20525;-83
2021/07/17 05:12:36;;;;;;;24.13;19.00;;;17.50;99.90;;;;;;5078773;28;20450;-81
2021/07/17 05:15:02;;;;;;;26.30;18.90;;;17.30;99.90;;;;;;5086198;28;20442;-81
2021/07/17 05:17:27;;;;;;;25.27;17.93;;;17.60;99.90;;;;;;5085738;28;20182;-82
2021/07/17 05:19:53;;;;;;;26.90;17.53;;;17.50;99.90;;;;;;5087671;28;20194;-82
2021/07/17 05:22:18;;;;;;;29.63;18.40;;;17.70;99.90;;;;;;5082385;28;20188;-81
2021/07/17 05:24:44;;;;;;;27.03;18.87;;;17.40;99.90;;;;;;5081102;28;20184;-82
2021/07/17 05:27:10;;;;;;;24.77;18.63;;;17.50;99.90;;;;;;5087584;28;20268;-82
2021/07/17 05:29:35;;;;;;;26.07;17.97;;;17.70;99.90;;;;;;5080170;28;20538;-82
2021/07/17 05:32:01;;;;;;;31.53;21.00;;;17.50;99.90;;;;;;5081436;28;20402;-83
2021/07/17 05:34:26;;;;;;;27.73;18.60;;;17.80;99.90;;;;;;5079117;28;20185;-81
2021/07/17 05:36:52;;;;;;;21.53;17.60;;;17.60;99.90;;;;;;5080312;28;20212;-81
2021/07/17 05:39:17;;;;;;;22.57;17.70;;;17.70;99.90;;;;;;5082918;28;20273;-82
2021/07/17 05:41:43;;;;;;;22.77;18.40;;;17.70;99.90;;;;;;5082990;28;20178;-80
2021/07/17 05:44:09;;;;;;;21.07;16.97;;;18.00;99.90;;;;;;5083417;28;20699;-81
2021/07/17 05:46:34;;;;;;;22.60;17.73;;;17.70;99.90;;;;;;5088851;28;20242;-81
2021/07/17 05:49:00;;;;;;;19.40;15.07;;;18.00;99.90;;;;;;5090818;28;20461;-81
2021/07/17 05:51:25;;;;;;;21.73;18.10;;;17.80;99.90;;;;;;5078661;28;20618;-80
2021/07/17 05:53:51;;;;;;;23.17;16.27;;;17.90;99.90;;;;;;5089714;28;20546;-80
2021/07/17 05:56:16;;;;;;;20.13;17.07;;;17.90;99.90;;;;;;5087840;28;20224;-81
2021/07/17 05:58:42;;;;;;;19.13;16.57;;;17.80;99.90;;;;;;5097575;28;20212;-81
2021/07/17 06:01:07;;;;;;;18.40;15.80;;;18.30;99.90;;;;;;5085433;28;20185;-86
2021/07/17 06:03:33;;;;;;;28.63;18.90;;;18.20;99.90;;;;;;5078480;28;20271;-80
2021/07/17 06:05:59;;;;;;;26.30;17.37;;;18.20;99.90;;;;;;5085465;28;20244;-78
2021/07/17 06:08:24;;;;;;;29.30;17.73;;;18.10;99.90;;;;;;5081828;28;20262;-81
2021/07/17 06:10:50;;;;;;;23.57;17.60;;;18.10;99.90;;;;;;5087981;28;20229;-81
2021/07/17 06:13:15;;;;;;;24.43;19.33;;;18.20;99.90;;;;;;5089601;28;20179;-85
2021/07/17 06:15:41;;;;;;;25.60;18.53;;;18.20;99.90;;;;;;5076579;28;20309;-83
2021/07/17 06:18:06;;;;;;;24.97;16.53;;;18.10;99.90;;;;;;5088390;28;20189;-82
2021/07/17 06:20:33;;;;;;;25.53;16.33;;;18.40;99.90;;;;;;5081577;28;20208;-82
2021/07/17 06:22:58;;;;;;;22.00;15.73;;;18.10;99.90;;;;;;5084639;28;20427;-82
2021/07/17 06:25:24;;;;;;;25.83;18.37;;;18.50;99.90;;;;;;5089709;28;20191;-82
2021/07/17 06:27:50;;;;;;;18.80;16.57;;;18.40;99.90;;;;;;5091919;28;20190;-82
2021/07/17 06:30:16;;;;;;;24.57;18.40;;;18.40;99.90;;;;;;5092181;28;20177;-83
2021/07/17 06:32:41;;;;;;;20.57;16.73;;;18.40;99.90;;;;;;5091899;28;20239;-81
2021/07/17 06:35:07;;;;;;;21.77;15.70;;;18.40;99.90;;;;;;5090837;28;20432;-82
2021/07/17 06:37:32;;;;;;;18.23;14.53;;;18.60;99.90;;;;;;5092315;28;20187;-84
2021/07/17 06:39:58;;;;;;;17.97;14.97;;;18.70;99.90;;;;;;5092267;28;20194;-82
2021/07/17 06:42:23;;;;;;;18.53;14.10;;;19.00;99.90;;;;;;5091944;28;20201;-82
2021/07/17 06:44:49;;;;;;;22.23;16.00;;;19.00;99.90;;;;;;5091853;28;20478;-83
2021/07/17 06:47:15;;;;;;;20.20;16.30;;;18.90;99.90;;;;;;5091984;28;20229;-83
2021/07/17 06:49:40;;;;;;;23.37;15.90;;;18.90;99.90;;;;;;5091767;28;20190;-82
2021/07/17 06:52:06;;;;;;;22.80;16.47;;;18.60;99.90;;;;;;5091805;28;20192;-83
2021/07/17 06:54:31;;;;;;;22.10;16.53;;;18.90;99.90;;;;;;5090339;28;20186;-83
2021/07/17 06:56:57;;;;;;;22.57;16.43;;;19.10;99.90;;;;;;5083939;28;20578;-82
2021/07/17 06:59:22;;;;;;;22.30;17.40;;;18.70;99.90;;;;;;5089173;28;20475;-84
2021/07/17 07:01:48;;;;;;;22.63;16.80;;;19.10;99.90;;;;;;5091650;28;20271;-82
2021/07/17 07:04:13;;;;;;;18.97;15.00;;;18.90;99.90;;;;;;5091930;28;20259;-83
2021/07/17 07:06:39;;;;;;;20.97;16.87;;;19.20;99.90;;;;;;5089521;28;20711;-83
2021/07/17 07:09:04;;;;;;;23.87;17.47;;;19.10;99.90;;;;;;5091386;28;20233;-82
2021/07/17 07:11:30;;;;;;;22.53;17.63;;;19.20;99.90;;;;;;5090050;28;20956;-83
2021/07/17 07:13:56;;;;;;;16.83;14.20;;;19.40;99.90;;;;;;5090448;28;20185;-83
2021/07/17 07:16:21;;;;;;;23.90;17.20;;;19.60;99.90;;;;;;5092136;28;20635;-80
2021/07/17 07:18:46;;;;;;;17.70;13.80;;;19.40;99.90;;;;;;5091362;28;20642;-80
2021/07/17 07:21:12;;;;;;;20.87;16.40;;;19.50;99.90;;;;;;5091580;28;20396;-81
2021/07/17 07:23:38;;;;;;;17.10;14.53;;;19.70;99.90;;;;;;5090810;28;20185;-82
2021/07/17 07:26:03;;;;;;;23.37;17.13;;;19.70;99.90;;;;;;5090590;28;20186;-81
2021/07/17 07:28:29;;;;;;;18.17;16.03;;;19.70;99.90;;;;;;5090877;28;20244;-86
2021/07/17 07:30:54;;;;;;;24.73;16.60;;;19.60;99.90;;;;;;5091413;28;20328;-81
2021/07/17 07:33:20;;;;;;;26.70;18.20;;;19.70;99.90;;;;;;5090796;28;20184;-82
2021/07/17 07:35:45;;;;;;;22.47;15.77;;;19.60;99.90;;;;;;5089873;28;20255;-81
2021/07/17 07:38:11;;;;;;;20.20;16.03;;;19.60;99.90;;;;;;5090257;28;20196;-82
2021/07/17 07:40:37;;;;;;;18.97;15.63;;;19.70;99.90;;;;;;5090960;28;20183;-84
2021/07/17 07:43:02;;;;;;;18.77;15.43;;;19.80;99.90;;;;;;5091777;28;20481;-81
2021/07/17 07:45:28;;;;;;;17.43;14.13;;;19.80;99.90;;;;;;5090952;28;20433;-83
2021/07/17 07:47:54;;;;;;;18.27;15.20;;;19.70;99.90;;;;;;5084175;28;20719;-83
2021/07/17 07:50:21;;;;;;;20.23;16.30;;;20.00;99.90;;;;;;5088290;28;20294;-84
2021/07/17 07:52:47;;;;;;;16.43;14.43;;;19.90;99.90;;;;;;5091094;28;20227;-83
2021/07/17 07:55:12;;;;;;;17.00;14.67;;;19.80;99.90;;;;;;5094412;28;21033;-83
2021/07/17 07:57:38;;;;;;;17.47;15.03;;;19.80;99.90;;;;;;5087971;28;20453;-85
2021/07/17 08:00:07;;;;;;;17.20;13.77;;;19.90;99.90;;;;;;5092295;28;20218;-84
2021/07/17 08:02:33;;;;;;;18.07;14.93;;;20.20;99.90;;;;;;5078514;28;20546;-83
2021/07/17 08:04:58;;;;;;;16.30;13.00;;;20.10;99.90;;;;;;5086943;28;20439;-83
2021/07/17 08:07:25;;;;;;;18.67;14.10;;;20.40;99.90;;;;;;5089735;28;20196;-84
2021/07/17 08:09:51;;;;;;;16.20;13.90;;;20.40;99.90;;;;;;5084954;28;20731;-84
2021/07/17 08:12:17;;;;;;;18.23;16.13;;;20.40;99.90;;;;;;5075002;28;20540;-84
2021/07/17 08:14:42;;;;;;;17.23;14.80;;;20.20;99.90;;;;;;5078920;28;20200;-84
2021/07/17 08:17:10;;;;;;;19.23;16.20;;;20.20;99.90;;;;;;5084170;28;20520;-84
2021/07/17 08:19:35;;;;;;;17.97;14.67;;;20.50;99.90;;;;;;5084468;28;20195;-84
2021/07/17 08:22:01;;;;;;;23.13;16.30;;;20.20;99.90;;;;;;5081291;28;20800;-84
2021/07/17 08:24:27;;;;;;;19.80;16.33;;;19.90;99.90;;;;;;5088072;28;20188;-83
2021/07/17 08:26:52;;;;;;;18.60;13.80;;;19.80;99.90;;;;;;5088041;28;20211;-83
2021/07/17 08:29:18;;;;;;;18.27;15.87;;;19.90;99.90;;;;;;5089480;28;20183;-84
2021/07/17 08:31:43;;;;;;;17.83;14.37;;;19.70;99.90;;;;;;5089123;28;20191;-83
2021/07/17 08:34:09;;;;;;;18.73;15.57;;;19.60;99.90;;;;;;5087998;28;20346;-82
2021/07/17 08:36:35;;;;;;;19.67;16.20;;;19.80;99.90;;;;;;5088628;28;20224;-83
2021/07/17 08:39:00;;;;;;;17.63;14.20;;;19.30;99.90;;;;;;5076247;28;20216;-82
2021/07/17 08:41:29;;;;;;;20.67;16.70;;;19.60;99.90;;;;;;5073252;28;20197;-84
2021/07/17 08:43:55;;;;;;;17.43;15.53;;;19.50;99.90;;;;;;5072911;28;20282;-82
2021/07/17 08:46:23;;;;;;;20.50;15.87;;;19.70;99.90;;;;;;5088084;28;20433;-82
2021/07/17 08:48:51;;;;;;;18.90;16.20;;;19.70;99.90;;;;;;5078370;28;20859;-83
2021/07/17 08:51:17;;;;;;;25.40;19.40;;;19.50;99.90;;;;;;5085308;28;20434;-74
2021/07/17 08:53:45;;;;;;;22.33;16.70;;;19.80;99.90;;;;;;5089576;28;20444;-76
2021/07/17 08:56:10;;;;;;;20.63;15.30;;;19.70;99.90;;;;;;5081678;28;20270;-77
2021/07/17 08:58:36;;;;;;;20.93;16.90;;;19.50;99.90;;;;;;5084431;28;20470;-76
2021/07/17 09:01:02;;;;;;;23.80;16.37;;;19.50;99.90;;;;;;5078883;28;20184;-75
2021/07/17 09:03:28;;;;;;;22.37;16.53;;;19.50;99.90;;;;;;5089124;28;20213;-75
2021/07/17 09:05:54;;;;;;;22.93;16.73;;;19.30;99.90;;;;;;5081902;28;20522;-76
2021/07/17 09:08:20;;;;;;;19.90;17.47;;;19.20;99.90;;;;;;5085688;28;21009;-76
2021/07/17 09:10:49;;;;;;;20.47;17.00;;;19.50;99.90;;;;;;5083428;28;20232;-77
2021/07/17 09:13:32;;;;;;;22.50;18.50;;;19.90;99.90;;;;;;5081460;28;20446;-77
2021/07/17 09:16:00;;;;;;;21.47;17.73;;;19.90;99.90;;;;;;5078499;28;20567;-76
2021/07/17 09:18:37;;;;;;;20.83;17.80;;;20.20;99.90;;;;;;5083609;28;20446;-77
2021/07/17 09:21:17;;;;;;;19.90;16.67;;;20.50;99.90;;;;;;5081449;28;21016;-76
2021/07/17 09:24:07;;;;;;;21.40;16.87;;;21.00;99.90;;;;;;5082863;28;20509;-76
2021/07/17 09:26:39;;;;;;;19.57;16.63;;;21.30;99.90;;;;;;5078501;28;20443;-76
2021/07/17 09:29:09;;;;;;;16.93;15.00;;;22.60;99.90;;;;;;5085711;28;20428;-76
2021/07/17 09:31:53;;;;;;;17.10;14.53;;;24.10;99.90;;;;;;5074087;28;20487;-76
2021/07/17 09:34:25;;;;;;;15.67;13.97;;;25.20;99.90;;;;;;5088587;28;20821;-77
2021/07/17 09:36:54;;;;;;;17.60;15.37;;;25.20;99.90;;;;;;5085140;28;20479;-75
2021/07/17 09:39:23;;;;;;;16.07;13.50;;;24.90;97.60;;;;;;5085531;28;20854;-76
2021/07/17 09:42:00;;;;;;;18.30;14.70;;;24.50;97.00;;;;;;5086505;28;20447;-76
2021/07/17 09:44:27;;;;;;;16.73;14.63;;;24.20;96.10;;;;;;5087425;28;20773;-75
2021/07/17 09:46:56;;;;;;;17.23;15.53;;;24.10;95.40;;;;;;5084940;28;20449;-77
2021/07/17 09:49:24;;;;;;;15.90;14.17;;;23.70;95.80;;;;;;5088569;28;20441;-76
2021/07/17 09:52:08;;;;;;;17.60;14.83;;;23.40;96.20;;;;;;5089507;28;20437;-74
2021/07/17 09:54:33;;;;;;;18.77;16.60;;;23.70;97.50;;;;;;5082068;28;20934;-74
2021/07/17 09:57:03;;;;;;;16.33;14.37;;;23.50;94.20;;;;;;5081648;28;20568;-76
2021/07/17 09:59:29;;;;;;;19.13;14.93;;;23.00;94.50;;;;;;5089373;28;20182;-74
2021/07/17 10:01:54;;;;;;;19.10;16.30;;;23.00;96.20;;;;;;5088765;28;20436;-75
2021/07/17 10:04:20;;;;;;;19.00;16.00;;;23.00;96.90;;;;;;5094026;28;20181;-76
2021/07/17 10:06:49;;;;;;;18.97;14.57;;;22.60;97.40;;;;;;5085822;28;20181;-74
2021/07/17 10:09:15;;;;;;;18.07;14.47;;;22.90;98.30;;;;;;5094515;28;20177;-75
2021/07/17 10:12:03;;;;;;;17.93;14.90;;;22.60;97.40;;;;;;5088004;28;20990;-76
2021/07/17 10:14:38;;;;;;;18.60;15.53;;;22.60;98.00;;;;;;5089978;28;20272;-75
2021/07/17 10:17:08;;;;;;;16.33;14.30;;;22.50;98.20;;;;;;5085034;28;20482;-74
2021/07/17 10:19:35;;;;;;;18.03;14.97;;;22.50;98.80;;;;;;5090954;28;20465;-75
2021/07/17 10:22:01;;;;;;;17.33;14.80;;;22.60;99.90;;;;;;5086646;28;20462;-76
2021/07/17 10:24:27;;;;;;;21.23;16.17;;;22.60;98.80;;;;;;5086577;28;20462;-74
2021/07/17 10:26:53;;;;;;;18.37;15.53;;;22.70;99.50;;;;;;5091087;28;20906;-74
2021/07/17 10:29:20;;;;;;;18.53;14.90;;;22.80;99.60;;;;;;5087692;28;20489;-75
2021/07/17 10:31:47;;;;;;;16.70;14.03;;;23.30;99.80;;;;;;5090256;28;20527;-76
2021/07/17 10:34:13;;;;;;;17.43;14.90;;;24.00;99.70;;;;;;5086058;28;20940;-75
2021/07/17 10:37:10;;;;;;;14.77;13.17;;;25.30;97.70;;;;;;5092951;28;20475;-77
2021/07/17 10:39:39;;;;;;;14.40;13.00;;;25.90;91.20;;;;;;5084970;28;20436;-77
2021/07/17 10:42:31;;;;;;;16.13;14.43;;;26.30;82.60;;;;;;5086648;28;20436;-76
2021/07/17 10:44:57;;;;;;;15.67;13.70;;;26.30;79.60;;;;;;5083507;28;20496;-76
2021/07/17 10:47:24;;;;;;;19.87;15.63;;;25.80;78.80;;;;;;5093920;28;20924;-77
2021/07/17 10:49:54;;;;;;;15.90;14.30;;;26.20;74.60;;;;;;5092552;28;20526;-77
2021/07/17 10:52:39;;;;;;;15.80;14.10;;;25.80;73.80;;;;;;5083955;28;20459;-74
2021/07/17 10:55:38;;;;;;;15.60;14.00;;;25.60;74.80;;;;;;5081130;28;20493;-75
2021/07/17 10:58:12;;;;;;;15.17;13.17;;;25.10;76.00;;;;;;5081756;28;20440;-75
2021/07/17 11:00:41;;;;;;;15.00;13.50;;;24.80;79.70;;;;;;5093521;28;20431;-74
2021/07/17 11:03:21;;;;;;;14.73;13.10;;;25.50;79.00;;;;;;5093497;28;20452;-74
2021/07/17 11:05:48;;;;;;;14.83;13.37;;;25.30;77.70;;;;;;5093833;28;20442;-75
2021/07/17 11:08:30;;;;;;;14.40;12.67;;;25.30;77.10;;;;;;5092988;28;20432;-75
2021/07/17 11:10:55;;;;;;;15.83;14.00;;;25.10;78.10;;;;;;5092672;28;20532;-75
2021/07/17 11:13:35;;;;;;;13.80;12.40;;;25.10;77.90;;;;;;5086773;28;20523;-73
2021/07/17 11:16:02;;;;;;;15.53;14.00;;;25.30;79.00;;;;;;5093588;28;20532;-73
2021/07/17 11:18:37;;;;;;;16.60;14.53;;;25.20;76.70;;;;;;5092812;28;20445;-75
2021/07/17 11:21:05;;;;;;;14.87;12.90;;;25.30;76.90;;;;;;5084376;28;21016;-73
2021/07/17 11:23:33;;;;;;;15.40;13.63;;;25.90;77.00;;;;;;5092384;28;20473;-75
2021/07/17 11:26:04;;;;;;;14.30;12.80;;;26.00;76.20;;;;;;5091414;28;20430;-76
2021/07/17 11:28:51;;;;;;;14.40;13.00;;;26.00;75.40;;;;;;5087400;28;20454;-75
2021/07/17 11:31:33;;;;;;;13.10;11.70;;;26.10;75.00;;;;;;5087236;28;20584;-74
2021/07/17 11:34:11;;;;;;;13.60;12.20;;;26.20;75.30;;;;;;5092857;28;20544;-72
2021/07/17 11:36:38;;;;;;;12.50;11.40;;;26.00;75.40;;;;;;5093094;28;20484;-73
2021/07/17 11:39:06;;;;;;;14.97;13.47;;;25.50;74.40;;;;;;5092909;28;20471;-73
2021/07/17 11:41:31;;;;;;;14.63;13.20;;;25.80;74.70;;;;;;5088515;28;21258;-74
2021/07/17 11:43:57;;;;;;;14.87;13.47;;;25.30;75.20;;;;;;5089918;28;20449;-76
2021/07/17 11:46:22;;;;;;;14.07;12.67;;;24.90;75.80;;;;;;5092686;28;20660;-75
2021/07/17 11:49:07;;;;;;;14.80;13.40;;;24.30;76.80;;;;;;5093053;28;20250;-76
2021/07/17 11:51:46;;;;;;;14.80;13.27;;;24.30;78.70;;;;;;5077294;28;20192;-74
2021/07/17 11:54:11;;;;;;;18.10;14.90;;;23.80;80.70;;;;;;5092734;28;20526;-76
2021/07/17 11:56:37;;;;;;;15.10;13.30;;;23.50;81.90;;;;;;5092395;28;20567;-73
2021/07/17 11:59:15;;;;;;;14.33;12.87;;;23.80;83.50;;;;;;5083853;28;20185;-72
2021/07/17 12:02:03;;;;;;;17.97;14.77;;;23.80;84.20;;;;;;5091104;28;20194;-74
2021/07/17 12:04:33;;;;;;;16.70;14.13;;;23.20;83.80;;;;;;5091577;28;20517;-72
2021/07/17 12:07:04;;;;;;;15.70;14.20;;;23.80;85.80;;;;;;5092251;28;20439;-74
2021/07/17 12:09:38;;;;;;;16.67;14.43;;;24.10;86.00;;;;;;5091764;28;20447;-74
2021/07/17 12:12:26;;;;;;;17.63;14.30;;;23.90;85.30;;;;;;5081599;28;20440;-74
2021/07/17 12:15:01;;;;;;;14.10;12.70;;;24.10;86.90;;;;;;5092097;28;20431;-72
2021/07/17 12:17:27;;;;;;;16.10;13.00;;;24.50;86.00;;;;;;5091800;28;20477;-73
2021/07/17 12:20:06;;;;;;;14.67;13.13;;;24.70;83.70;;;;;;5091948;28;20850;-72
2021/07/17 12:22:33;;;;;;;16.53;14.57;;;24.90;81.70;;;;;;5091440;28;20444;-73
2021/07/17 12:25:12;;;;;;;14.03;12.60;;;25.00;80.70;;;;;;5091768;28;20454;-73
2021/07/17 12:28:02;;;;;;;14.90;13.60;;;25.50;80.90;;;;;;5084891;28;20451;-74
2021/07/17 12:30:46;;;;;;;16.87;13.23;;;25.50;76.30;;;;;;5078634;28;20816;-74